Time;durP1;ratioP1;P1;durP2;ratioP2;P2;SDS_P1;SDS_P2;PMS_P1;PMS_P2;Temp;Humidity;BMP_temperature;BMP_pressure;BME280_temperature;BME280_humidity;BME280_pressure;Samples;Min_cycle;Max_cycle;Signal;HPM_P1;HPM_P2
2021/09/13 00:00:01;;;;;;;17.23;6.83;;;;;;;17.04;61.20;100775.97;1644037;87;21373;-63
2021/09/13 00:02:36;;;;;;;19.60;7.58;;;;;;;17.01;61.19;100771.48;1643382;87;21243;-64
2021/09/13 00:05:12;;;;;;;22.27;7.12;;;;;;;16.97;61.20;100772.33;1642538;87;21234;-64
2021/09/13 00:07:46;;;;;;;21.35;6.97;;;;;;;16.97;61.17;100768.85;1644000;87;21306;-63
2021/09/13 00:10:20;;;;;;;19.55;7.78;;;;;;;16.96;61.13;100765.38;1643925;87;21207;-63
2021/09/13 00:12:54;;;;;;;17.55;7.15;;;;;;;16.95;61.22;100767.70;1644126;87;21182;-63
2021/09/13 00:15:29;;;;;;;26.93;7.80;;;;;;;16.95;61.23;100766.88;1643742;87;21309;-63
2021/09/13 00:18:02;;;;;;;18.32;7.22;;;;;;;16.95;61.02;100766.88;1643960;87;21214;-63
2021/09/13 00:20:36;;;;;;;21.90;8.38;;;;;;;16.96;61.04;100762.73;1642768;87;21183;-63
2021/09/13 00:23:11;;;;;;;46.73;14.40;;;;;;;16.98;61.03;100764.70;1643928;87;21341;-63
2021/09/13 00:25:48;;;;;;;48.50;16.60;;;;;;;17.00;61.06;100765.89;1643722;87;21837;-63
2021/09/13 00:28:22;;;;;;;60.78;17.95;;;;;;;17.01;61.07;100767.52;1642436;87;21179;-64
2021/09/13 00:30:58;;;;;;;28.70;11.33;;;;;;;16.99;61.01;100759.77;1643643;87;21203;-64
2021/09/13 00:33:32;;;;;;;16.37;7.50;;;;;;;16.97;60.95;100759.59;1642433;87;21219;-64
2021/09/13 00:36:06;;;;;;;34.15;10.23;;;;;;;16.98;61.18;100763.91;1643826;87;21203;-64
2021/09/13 00:38:41;;;;;;;32.80;11.33;;;;;;;16.98;61.28;100764.70;1642612;87;21203;-64
2021/09/13 00:41:15;;;;;;;20.27;7.65;;;;;;;16.97;61.45;100764.39;1643658;87;21321;-64
2021/09/13 00:43:49;;;;;;;21.45;8.85;;;;;;;16.97;61.45;100766.20;1642572;87;21254;-63
2021/09/13 00:46:22;;;;;;;18.30;8.30;;;;;;;16.95;61.38;100767.70;1643639;87;21306;-63
2021/09/13 00:48:56;;;;;;;17.45;7.35;;;;;;;16.95;61.27;100764.23;1643677;87;21237;-64
2021/09/13 00:51:30;;;;;;;;;;;;;;;16.95;61.17;100763.73;1644967;87;21223;-63
2021/09/13 00:54:03;;;;;;;20.52;6.10;;;;;;;16.95;60.96;100766.38;1643476;87;20298;-63
2021/09/13 00:56:38;;;;;;;15.78;6.10;;;;;;;16.92;60.79;100762.73;1577074;90;21245;-63
2021/09/13 00:59:12;;;;;;;14.60;6.40;;;;;;;16.92;60.70;100763.22;1642211;87;21254;-65
2021/09/13 01:01:47;;;;;;;17.32;6.45;;;;;;;16.90;60.66;100763.40;1576906;91;21225;-63
2021/09/13 01:04:20;;;;;;;18.07;6.30;;;;;;;16.88;60.58;100763.23;1577007;91;21194;-63
2021/09/13 01:06:54;;;;;;;14.53;5.97;;;;;;;16.88;60.52;100765.39;1578107;91;21875;-63
2021/09/13 01:09:28;;;;;;;10.80;5.22;;;;;;;16.88;60.45;100760.09;1642993;87;21208;-64
2021/09/13 01:12:01;;;;;;;12.35;5.28;;;;;;;16.87;60.49;100769.01;1578008;91;21320;-65
2021/09/13 01:14:37;;;;;;;;;;;;;;;16.84;60.38;100765.36;1644528;87;21218;-66
2021/09/13 01:17:10;;;;;;;11.43;5.22;;;;;;;16.78;60.49;100766.86;1642230;87;20233;-64
2021/09/13 01:19:45;;;;;;;17.35;4.65;;;;;;;16.70;60.65;100764.20;1576891;91;21228;-65
2021/09/13 01:22:19;;;;;;;;;;;;;;;16.65;60.78;100764.34;1644439;87;21227;-64
2021/09/13 01:24:53;;;;;;;;;;;;;;;16.62;60.88;100758.88;1644749;86;20607;-63
2021/09/13 01:27:25;;;;;;;13.50;5.50;;;;;;;16.60;61.06;100760.87;1643051;87;20237;-63
2021/09/13 01:30:00;;;;;;;17.30;6.20;;;;;;;16.59;61.14;100759.23;1642093;87;21160;-64
2021/09/13 01:32:35;;;;;;;18.07;6.25;;;;;;;16.60;61.29;100764.00;1642943;87;21845;-63
2021/09/13 01:35:09;;;;;;;21.77;7.53;;;;;;;16.61;61.38;100759.89;1643654;87;21215;-63
2021/09/13 01:37:42;;;;;;;19.95;6.97;;;;;;;16.64;61.43;100760.89;1642848;87;21516;-63
2021/09/13 01:40:17;;;;;;;15.50;6.30;;;;;;;16.66;61.46;100760.23;1643035;87;21215;-63
2021/09/13 01:42:50;;;;;;;15.08;6.40;;;;;;;16.68;61.45;100756.09;1643148;87;21366;-63
2021/09/13 01:45:25;;;;;;;19.35;6.50;;;;;;;16.67;61.33;100761.88;1643378;87;21179;-63
2021/09/13 01:47:58;;;;;;;17.70;6.55;;;;;;;16.69;61.03;100764.38;1643197;87;21184;-63
2021/09/13 01:50:32;;;;;;;12.53;5.47;;;;;;;16.68;61.06;100754.77;1642888;87;21290;-63
2021/09/13 01:53:06;;;;;;;14.78;6.33;;;;;;;16.67;61.26;100762.39;1642046;87;21214;-63
2021/09/13 01:55:39;;;;;;;13.97;5.77;;;;;;;16.66;61.38;100762.05;1643278;87;21314;-63
2021/09/13 01:58:13;;;;;;;11.30;5.22;;;;;;;16.64;60.79;100763.54;1643223;87;21627;-64
2021/09/13 02:00:47;;;;;;;13.15;5.78;;;;;;;16.64;60.56;100764.03;1643174;87;21309;-63
2021/09/13 02:03:20;;;;;;;15.83;6.08;;;;;;;16.64;60.38;100759.58;1643389;87;21341;-64
2021/09/13 02:05:55;;;;;;;15.88;6.65;;;;;;;16.64;60.26;100762.22;1643861;87;21183;-63
2021/09/13 02:08:29;;;;;;;15.40;6.33;;;;;;;16.64;60.16;100758.74;1643257;87;21864;-63
2021/09/13 02:11:05;;;;;;;19.10;6.97;;;;;;;16.64;60.13;100761.39;1643025;87;21358;-65
2021/09/13 02:13:39;;;;;;;17.35;6.58;;;;;;;16.62;60.05;100758.88;1643075;87;21251;-63
2021/09/13 02:16:12;;;;;;;16.85;6.55;;;;;;;16.63;60.01;100763.69;1643972;87;21338;-63
2021/09/13 02:18:46;;;;;;;17.32;5.92;;;;;;;16.63;60.03;100764.52;1643065;87;21214;-64
2021/09/13 02:21:20;;;;;;;13.95;5.83;;;;;;;16.63;59.99;100763.69;1642430;87;21263;-64
2021/09/13 02:23:55;;;;;;;18.42;5.70;;;;;;;16.61;60.01;100765.18;1642500;87;21255;-64
2021/09/13 02:26:29;;;;;;;13.08;5.70;;;;;;;16.59;60.09;100761.88;1643986;87;21172;-63
2021/09/13 02:29:03;;;;;;;18.67;5.67;;;;;;;16.58;60.11;100771.27;1643188;87;21211;-63
2021/09/13 02:31:36;;;;;;;;;;;;;;;16.57;60.26;100768.31;1644917;87;21167;-63
2021/09/13 02:34:09;;;;;;;16.57;5.42;;;;;;;16.55;60.55;100776.39;1643090;87;20615;-63
2021/09/13 02:36:42;;;;;;;10.85;5.37;;;;;;;16.52;60.90;100775.41;1643981;87;21242;-63
2021/09/13 02:39:17;;;;;;;10.60;5.30;;;;;;;16.52;61.04;100778.05;1642954;87;21340;-64
2021/09/13 02:41:50;;;;;;;13.28;5.40;;;;;;;16.51;61.40;100775.52;1642974;87;21325;-63
2021/09/13 02:44:25;;;;;;;13.30;5.37;;;;;;;16.49;61.41;100777.50;1643219;87;21321;-63
2021/09/13 02:46:59;;;;;;;11.93;5.42;;;;;;;16.46;61.46;100777.33;1642486;87;21175;-63
2021/09/13 02:49:34;;;;;;;12.50;5.17;;;;;;;16.44;61.55;100775.83;1642957;87;21301;-63
2021/09/13 02:52:08;;;;;;;14.25;5.65;;;;;;;16.41;61.60;100776.14;1642921;87;21286;-63
2021/09/13 02:54:41;;;;;;;9.58;5.28;;;;;;;16.37;61.68;100773.02;1643160;87;21314;-63
2021/09/13 02:57:14;;;;;;;22.37;5.78;;;;;;;16.36;61.68;100777.15;1642852;87;21322;-64
2021/09/13 02:59:47;;;;;;;9.83;5.75;;;;;;;16.31;61.72;100773.64;1577481;91;21228;-63
2021/09/13 03:02:20;;;;;;;15.88;5.12;;;;;;;16.28;61.78;100774.47;1642376;87;21214;-63
2021/09/13 03:04:54;;;;;;;19.95;6.03;;;;;;;16.25;61.76;100774.30;1561758;91;21224;-63
2021/09/13 03:07:27;;;;;;;16.30;5.70;;;;;;;16.22;61.94;100771.12;1643567;87;21211;-63
2021/09/13 03:10:00;;;;;;;18.82;7.45;;;;;;;16.21;62.26;100777.41;1577558;91;21216;-64
2021/09/13 03:12:35;;;;;;;24.40;8.50;;;;;;;16.17;62.36;100781.69;1642276;87;21155;-64
2021/09/13 03:15:10;;;;;;;32.48;10.43;;;;;;;16.15;62.75;100776.23;1577662;91;21197;-64
2021/09/13 03:17:45;;;;;;;24.45;9.13;;;;;;;16.11;63.04;100782.34;1643400;87;21255;-64
2021/09/13 03:20:19;;;;;;;22.93;7.80;;;;;;;16.09;63.40;100782.16;1577238;91;21228;-64
2021/09/13 03:22:53;;;;;;;25.92;10.95;;;;;;;16.04;63.54;100785.28;1642590;87;21333;-63
2021/09/13 03:25:26;;;;;;;;;;;;;;;16.02;63.73;100783.78;1579639;90;21328;-63
2021/09/13 03:27:59;;;;;;;25.92;13.13;;;;;;;15.99;64.00;100793.33;1643758;87;20250;-63
2021/09/13 03:30:34;;;;;;;69.22;28.07;;;;;;;15.96;64.56;100797.59;1577188;90;21301;-64
2021/09/13 03:33:08;;;;;;;51.28;23.45;;;;;;;15.92;64.82;100802.87;1642467;87;21207;-64
2021/09/13 03:35:41;;;;;;;33.08;15.13;;;;;;;15.89;65.01;100802.69;1577619;91;21336;-65
2021/09/13 03:38:14;;;;;;;23.95;11.33;;;;;;;15.90;65.25;100803.52;1643782;87;21286;-64
2021/09/13 03:40:47;;;;;;;22.13;9.65;;;;;;;15.91;65.59;100801.20;1577376;89;21349;-63
2021/09/13 03:43:22;;;;;;;18.15;9.33;;;;;;;15.91;65.78;100806.48;1643629;87;21184;-64
2021/09/13 03:45:55;;;;;;;20.52;8.13;;;;;;;15.94;65.86;100808.33;1577216;91;21320;-64
2021/09/13 03:48:49;;;;;;;20.05;7.33;;;;;;;16.00;65.77;100809.52;1641749;87;21187;-64
2021/09/13 03:51:23;;;;;;;17.25;7.45;;;;;;;16.09;65.91;100805.45;1642106;87;21623;-66
2021/09/13 03:53:58;;;;;;;18.75;7.53;;;;;;;16.19;65.94;100806.13;1621011;87;21302;-63
2021/09/13 03:56:32;;;;;;;21.48;8.35;;;;;;;16.31;65.84;100790.81;1642005;87;21297;-64
2021/09/13 03:59:05;;;;;;;25.77;8.50;;;;;;;16.45;65.46;100798.16;1642270;87;21302;-64
2021/09/13 04:01:40;;;;;;;27.13;9.70;;;;;;;16.60;65.21;100802.33;1642048;87;21869;-63
2021/09/13 04:04:15;;;;;;;21.23;8.75;;;;;;;16.82;64.92;100794.62;1643628;87;21298;-65
2021/09/13 04:06:57;;;;;;;23.67;10.28;;;;;;;17.22;64.43;100804.40;1643079;87;21183;-65
2021/09/13 04:12:19;;;;;;;54.40;23.00;;;;;;;18.24;62.50;100803.25;1595164;87;21191;-66
2021/09/13 04:15:12;;;;;;;79.27;19.90;;;;;;;18.89;60.70;100801.06;1643473;87;21314;-64
2021/09/13 04:18:03;;;;;;;40.73;17.10;;;;;;;19.61;58.35;100801.00;1643867;87;21334;-64
2021/09/13 04:20:40;;;;;;;28.38;12.07;;;;;;;20.38;55.73;100802.31;1640060;87;21246;-64
2021/09/13 04:23:16;;;;;;;30.75;12.23;;;;;;;21.01;52.88;100804.24;1636963;87;21215;-64
2021/09/13 04:25:51;;;;;;;26.97;9.60;;;;;;;21.71;50.70;100801.55;1638859;87;21313;-62
2021/09/13 04:28:32;;;;;;;24.00;12.25;;;;;;;22.34;48.80;100802.34;1640754;87;21175;-63
2021/09/13 04:31:07;;;;;;;27.70;12.88;;;;;;;22.90;46.94;100794.45;1641459;87;21195;-64
2021/09/13 04:33:59;;;;;;;12.88;7.30;;;;;;;23.21;45.42;100797.36;1642741;87;21286;-64
2021/09/13 04:36:42;;;;;;;27.10;9.18;;;;;;;23.12;44.63;100787.88;1577871;87;21202;-64
2021/09/13 04:39:36;;;;;;;36.28;17.50;;;;;;;23.02;44.78;100794.66;1640274;87;21227;-65
2021/09/13 04:42:11;;;;;;;46.80;22.95;;;;;;;23.40;44.35;100792.53;1633204;87;21377;-65
2021/09/13 04:44:58;;;;;;;62.27;34.23;;;;;;;23.85;43.35;100798.05;1586965;87;21164;-67
2021/09/13 04:47:36;;;;;;;62.85;34.83;;;;;;;23.92;42.62;100792.16;1640026;87;21279;-67
2021/09/13 04:50:29;;;;;;;60.50;32.25;;;;;;;23.95;42.19;100791.75;1638759;86;21286;-66
2021/09/13 04:53:10;;;;;;;44.63;24.02;;;;;;;24.46;41.20;100791.78;1609835;86;21257;-65
2021/09/13 04:55:44;;;;;;;42.80;21.65;;;;;;;24.81;40.30;100779.69;1670337;86;21164;-65
2021/09/13 04:58:17;;;;;;;20.80;10.90;;;;;;;24.72;40.10;100778.25;1635845;86;21195;-64
2021/09/13 05:00:50;;;;;;;22.70;10.45;;;;;;;24.85;40.05;100781.40;1633305;86;21307;-67
2021/09/13 05:03:24;;;;;;;23.52;9.53;;;;;;;25.45;39.29;100789.31;1601539;88;21201;-67
2021/09/13 05:05:58;;;;;;;29.20;10.40;;;;;;;25.76;38.51;100782.52;1616302;87;21343;-71
2021/09/13 05:08:31;;;;;;;21.17;8.95;;;;;;;25.70;38.54;100782.87;1630682;86;21322;-68
2021/09/13 05:11:08;;;;;;;22.42;11.40;;;;;;;25.56;38.69;100785.90;1644885;86;21334;-67
2021/09/13 05:13:42;;;;;;;32.20;15.45;;;;;;;25.40;39.18;100783.24;1641684;86;21308;-68
2021/09/13 05:16:17;;;;;;;29.35;15.13;;;;;;;25.27;39.26;100785.51;1640252;86;21161;-68
2021/09/13 05:18:51;;;;;;;65.45;14.70;;;;;;;25.03;39.57;100788.20;1606880;88;21212;-66
2021/09/13 05:21:24;;;;;;;17.90;9.38;;;;;;;24.78;39.95;100787.31;1622269;87;21322;-67
2021/09/13 05:24:00;;;;;;;24.45;8.93;;;;;;;24.55;40.28;100789.98;1617306;87;21342;-68
2021/09/13 05:26:33;;;;;;;;;;;;;;;24.41;40.34;100795.09;1623299;87;21349;-65
2021/09/13 05:29:06;;;;;;;22.98;8.48;;;;;;;24.29;40.67;100795.45;1623645;87;20306;-66
2021/09/13 05:31:39;;;;;;;18.45;6.58;;;;;;;24.20;40.63;100795.91;1635979;87;21357;-68
2021/09/13 05:34:15;;;;;;;15.18;6.50;;;;;;;24.12;40.52;100790.30;1634475;86;21292;-66
2021/09/13 05:36:47;;;;;;;;;;;;;;;24.04;40.98;100787.81;1634745;86;21329;-64
2021/09/13 05:39:20;;;;;;;21.75;6.17;;;;;;;24.03;40.96;100784.31;1628004;87;20267;-64
2021/09/13 05:41:59;;;;;;;16.45;6.08;;;;;;;24.01;40.96;100786.37;1611034;88;21181;-64
2021/09/13 05:44:36;;;;;;;22.13;6.42;;;;;;;24.03;40.87;100788.83;1634964;86;21267;-66
2021/09/13 05:47:09;;;;;;;15.95;5.80;;;;;;;24.16;40.78;100785.33;1607277;87;21600;-67
2021/09/13 05:49:44;;;;;;;18.82;6.62;;;;;;;24.36;40.70;100788.22;1640096;86;21227;-68
2021/09/13 05:52:18;;;;;;;21.30;6.55;;;;;;;24.36;40.70;100788.22;1609182;87;21188;-68
2021/09/13 05:54:52;;;;;;;25.75;10.23;;;;;;;24.49;40.25;100786.00;1621878;87;21328;-64
2021/09/13 05:57:25;;;;;;;;;;;;;;;24.58;40.27;100789.55;1623012;87;21296;-68
2021/09/13 05:59:59;;;;;;;30.45;16.32;;;;;;;24.82;40.12;100788.52;1628534;87;20244;-64
2021/09/13 06:02:32;;;;;;;31.97;13.62;;;;;;;25.22;39.55;100789.91;1642902;86;21283;-64
2021/09/13 06:05:11;;;;;;;24.98;12.60;;;;;;;25.71;38.51;100788.55;1648341;86;21318;-66
2021/09/13 06:07:45;;;;;;;20.12;9.70;;;;;;;26.27;37.54;100790.23;1635373;86;21172;-64
2021/09/13 06:10:21;;;;;;;19.82;9.65;;;;;;;26.79;36.61;100788.21;1630040;86;21707;-66
2021/09/13 06:12:53;;;;;;;;;;;;;;;27.18;36.19;100782.20;1631517;87;21339;-69
2021/09/13 06:15:26;;;;;;;18.35;8.08;;;;;;;27.75;35.29;100787.89;1628143;86;20242;-65
2021/09/13 06:18:01;;;;;;;16.55;7.78;;;;;;;28.44;34.13;100788.28;1613943;87;21219;-67
2021/09/13 06:20:35;;;;;;;15.83;7.72;;;;;;;29.31;32.65;100776.94;1623924;87;21219;-68
2021/09/13 06:23:07;;;;;;;18.02;8.73;;;;;;;29.79;31.86;100773.63;1625202;87;21231;-66
2021/09/13 06:25:42;;;;;;;19.10;8.85;;;;;;;30.20;31.25;100779.54;1638042;86;21295;-68
2021/09/13 06:28:15;;;;;;;24.00;8.85;;;;;;;31.11;29.99;100775.93;1647356;86;21215;-69
2021/09/13 06:30:49;;;;;;;14.28;7.97;;;;;;;32.36;28.23;100776.42;1609530;87;21255;-69
2021/09/13 06:33:22;;;;;;;19.02;6.05;;;;;;;33.64;26.66;100772.99;1620550;87;23367;-70
2021/09/13 06:35:56;;;;;;;13.53;5.25;;;;;;;34.60;25.10;100773.44;1595337;88;21703;-68
2021/09/13 06:38:31;;;;;;;13.60;4.62;;;;;;;35.10;24.08;100769.54;1637827;86;21328;-71
2021/09/13 06:41:06;;;;;;;22.60;5.58;;;;;;;35.42;23.60;100767.03;1637114;86;21118;-69
2021/09/13 06:43:42;;;;;;;11.08;5.03;;;;;;;35.71;23.30;100766.48;1640132;86;21908;-68
2021/09/13 06:46:25;;;;;;;12.65;4.67;;;;;;;36.08;22.73;100767.16;1638307;86;21209;-71
2021/09/13 06:48:58;;;;;;;10.07;4.67;;;;;;;36.54;21.77;100761.92;1647925;86;21342;-70
2021/09/13 06:51:32;;;;;;;15.85;4.53;;;;;;;36.96;21.18;100765.09;1637838;86;21307;-69
2021/09/13 06:54:05;;;;;;;15.35;4.30;;;;;;;37.66;20.52;100758.92;1625683;87;21354;-70
2021/09/13 06:56:38;;;;;;;12.95;4.12;;;;;;;38.53;19.66;100745.03;1620728;87;21414;-68
2021/09/13 06:59:15;;;;;;;9.13;3.72;;;;;;;39.42;18.40;100756.22;1639297;86;21338;-71
2021/09/13 07:01:49;;;;;;;7.17;3.72;;;;;;;40.01;17.67;100748.52;1637738;86;21743;-69
2021/09/13 07:04:23;;;;;;;10.85;3.58;;;;;;;40.48;17.10;100749.05;1632415;86;21381;-66
2021/09/13 07:06:57;;;;;;;5.83;3.22;;;;;;;41.07;16.55;100750.11;1632105;86;21322;-70
2021/09/13 07:09:30;;;;;;;10.90;3.83;;;;;;;41.35;15.93;100754.08;1637593;86;21892;-70
2021/09/13 07:12:11;;;;;;;10.00;4.08;;;;;;;41.61;15.70;100743.78;1623342;87;21240;-68
2021/09/13 07:14:46;;;;;;;9.45;3.92;;;;;;;41.89;15.65;100748.84;1621116;87;21339;-67
2021/09/13 07:17:19;;;;;;;6.97;3.10;;;;;;;41.98;15.25;100744.09;1614947;87;21303;-68
2021/09/13 07:19:52;;;;;;;8.45;3.30;;;;;;;42.12;15.19;100742.72;1624261;87;21310;-68
2021/09/13 07:22:25;;;;;;;8.80;3.20;;;;;;;42.37;14.82;100743.67;1640828;86;21248;-66
2021/09/13 07:24:59;;;;;;;8.68;3.15;;;;;;;42.59;14.42;100745.27;1636730;87;21350;-70
2021/09/13 07:27:32;;;;;;;8.33;3.25;;;;;;;42.77;14.29;100740.65;1638059;86;21290;-71
2021/09/13 07:30:06;;;;;;;7.95;3.10;;;;;;;42.93;14.03;100735.88;1613990;87;21243;-67
2021/09/13 07:32:41;;;;;;;7.47;3.37;;;;;;;43.07;13.98;100739.94;1611535;87;21330;-72
2021/09/13 07:35:14;;;;;;;8.45;3.42;;;;;;;43.32;13.75;100740.81;1609905;87;21324;-70
2021/09/13 07:37:48;;;;;;;6.67;3.17;;;;;;;43.35;13.34;100737.38;1608491;87;21232;-70
2021/09/13 07:40:22;;;;;;;11.43;3.27;;;;;;;43.25;13.41;100737.80;1632026;86;21857;-70
2021/09/13 07:42:55;;;;;;;7.45;3.12;;;;;;;43.45;13.34;100734.95;1629111;86;21315;-66
2021/09/13 07:45:28;;;;;;;9.00;3.62;;;;;;;43.82;13.07;100730.27;1642008;86;21381;-66
2021/09/13 07:48:01;;;;;;;7.15;3.40;;;;;;;44.07;12.75;100727.70;1642456;86;21220;-64
2021/09/13 07:50:35;;;;;;;13.10;4.15;;;;;;;44.15;12.63;100717.11;1647981;86;21244;-67
2021/09/13 07:53:10;;;;;;;7.08;3.45;;;;;;;44.25;12.67;100719.14;1645941;86;21334;-69
2021/09/13 07:55:43;;;;;;;8.68;3.40;;;;;;;44.47;12.37;100726.35;1637084;86;21339;-64
2021/09/13 07:58:16;;;;;;;10.15;3.52;;;;;;;44.50;12.50;100721.48;1634962;86;21310;-63
2021/09/13 08:00:50;;;;;;;9.00;3.40;;;;;;;44.63;12.33;100731.91;1637563;86;21189;-69
2021/09/13 08:03:23;;;;;;;13.48;3.85;;;;;;;44.82;11.84;100726.51;1645336;86;21271;-67
2021/09/13 08:05:56;;;;;;;7.53;2.42;;;;;;;44.89;11.64;100722.58;1643141;86;21756;-65
2021/09/13 08:08:30;;;;;;;7.70;2.77;;;;;;;44.94;11.47;100723.70;1643118;86;21351;-67
2021/09/13 08:11:06;;;;;;;8.83;3.22;;;;;;;44.90;11.53;100715.10;1639947;86;21284;-65
2021/09/13 08:13:41;;;;;;;4.87;2.47;;;;;;;44.96;11.32;100713.09;1615586;87;22506;-68
2021/09/13 08:16:16;;;;;;;2.98;2.67;;;;;;;44.92;11.04;100715.55;1643574;86;21335;-65
2021/09/13 08:18:51;;;;;;;5.85;2.80;;;;;;;44.56;11.29;100711.80;1641064;86;21298;-63
2021/09/13 08:21:27;;;;;;;12.80;2.52;;;;;;;44.21;11.24;100709.41;1616654;87;21251;-64
2021/09/13 08:24:01;;;;;;;6.20;2.55;;;;;;;43.88;11.70;100708.17;1642794;86;21751;-65
2021/09/13 08:26:35;;;;;;;6.37;2.65;;;;;;;43.73;11.82;100709.48;1641080;86;21302;-67
2021/09/13 08:29:14;;;;;;;9.13;3.00;;;;;;;43.77;11.72;100704.30;1647007;86;21327;-61
2021/09/13 08:31:44;;;;;;;34.05;3.50;;;;;;;43.66;11.78;100702.33;1611991;87;21336;-64
2021/09/13 08:34:17;;;;;;;5.55;2.90;;;;;;;43.58;11.78;100701.87;1644310;86;21803;-67
2021/09/13 08:36:51;;;;;;;6.90;2.35;;;;;;;43.47;11.86;100696.81;1642768;86;21318;-66
2021/09/13 08:39:24;;;;;;;3.47;2.12;;;;;;;43.21;12.08;100696.92;1640648;86;21164;-69
2021/09/13 08:41:57;;;;;;;6.20;4.15;;;;;;;42.97;12.14;100699.64;1617206;87;21869;-65
2021/09/13 08:44:33;;;;;;;38.08;5.83;;;;;;;42.74;12.27;100695.88;1610449;87;21349;-62
2021/09/13 08:47:13;;;;;;;8.88;3.10;;;;;;;42.59;12.58;100686.88;1645265;86;21315;-64
2021/09/13 08:49:41;;;;;;;5.08;2.55;;;;;;;42.68;12.71;100686.21;1621856;86;21334;-69
2021/09/13 08:52:13;;;;;;;6.62;3.30;;;;;;;42.62;12.31;100684.83;1617418;87;21315;-64
2021/09/13 08:54:46;;;;;;;7.53;2.42;;;;;;;42.18;12.42;100688.31;1607756;87;21306;-65
2021/09/13 08:57:20;;;;;;;8.60;2.42;;;;;;;41.68;12.72;100680.61;1637930;86;21702;-64
2021/09/13 08:59:54;;;;;;;13.20;2.95;;;;;;;41.37;13.13;100676.23;1617542;87;21322;-63
2021/09/13 09:02:28;;;;;;;4.70;2.42;;;;;;;41.11;13.37;100675.52;1639389;86;22241;-65
2021/09/13 09:05:02;;;;;;;5.10;2.00;;;;;;;40.89;13.66;100684.02;1639073;86;21196;-68
2021/09/13 09:07:54;;;;;;;6.90;2.12;;;;;;;40.77;13.59;100677.00;1643600;86;21299;-69
2021/09/13 09:10:29;;;;;;;9.18;2.30;;;;;;;40.68;13.65;100674.25;1638617;86;21263;-68
2021/09/13 09:13:13;;;;;;;8.43;2.58;;;;;;;40.59;13.83;100669.35;1639779;86;21834;-68
2021/09/13 09:15:59;;;;;;;9.68;2.90;;;;;;;40.65;14.03;100667.25;1640911;86;21397;-66
2021/09/13 09:18:47;;;;;;;4.45;1.90;;;;;;;40.62;13.95;100670.08;1640317;86;21235;-64
2021/09/13 09:21:39;;;;;;;3.83;1.90;;;;;;;40.38;13.85;100660.16;1643599;86;21329;-67
2021/09/13 09:24:11;;;;;;;2.65;1.77;;;;;;;39.52;14.25;100659.23;1639067;86;22625;-62
2021/09/13 09:27:02;;;;;;;5.92;2.10;;;;;;;38.21;15.04;100659.90;1633114;86;21178;-65
2021/09/13 09:29:36;;;;;;;9.88;2.72;;;;;;;37.02;16.06;100662.34;1609432;86;21248;-67
2021/09/13 09:32:09;;;;;;;15.03;2.60;;;;;;;36.06;17.15;100659.54;1645081;86;21287;-66
2021/09/13 09:34:42;;;;;;;6.70;2.50;;;;;;;35.65;17.75;100657.89;1639938;86;21315;-67
2021/09/13 09:37:15;;;;;;;8.08;2.25;;;;;;;35.39;18.11;100657.91;1642345;86;21253;-65
2021/09/13 09:39:54;;;;;;;5.83;2.37;;;;;;;35.28;18.20;100649.61;1640275;86;21152;-66
2021/09/13 09:42:38;;;;;;;5.50;1.95;;;;;;;35.17;18.24;100648.90;1625486;87;21273;-65
2021/09/13 09:45:22;;;;;;;4.33;2.00;;;;;;;35.08;18.40;100650.09;1645518;86;21353;-70
2021/09/13 09:48:12;;;;;;;5.40;2.55;;;;;;;35.03;18.43;100645.24;1640174;86;21720;-63
2021/09/13 09:50:44;;;;;;;6.95;2.47;;;;;;;34.83;18.95;100644.86;1638159;86;21352;-64
2021/09/13 09:53:19;;;;;;;4.75;2.30;;;;;;;34.35;19.35;100645.78;1621621;86;21347;-62
2021/09/13 09:55:53;;;;;;;6.00;2.33;;;;;;;33.91;19.79;100645.80;1632878;86;21306;-64
2021/09/13 09:58:26;;;;;;;10.10;2.25;;;;;;;33.31;20.64;100644.13;1643213;86;21367;-63
2021/09/13 10:01:00;;;;;;;5.47;1.95;;;;;;;32.67;21.11;100647.20;1613349;87;22027;-63
2021/09/13 10:03:34;;;;;;;6.35;2.50;;;;;;;32.13;21.67;100649.55;1615978;88;21751;-65
2021/09/13 10:06:08;;;;;;;5.28;2.30;;;;;;;31.66;22.50;100651.02;1652423;85;21297;-63
2021/09/13 10:08:41;;;;;;;8.20;2.27;;;;;;;31.30;23.18;100644.06;1644609;86;21271;-67
2021/09/13 10:11:16;;;;;;;3.62;2.50;;;;;;;31.08;23.53;100645.27;1646426;86;21211;-67
2021/09/13 10:13:49;;;;;;;5.92;2.98;;;;;;;30.84;23.76;100642.11;1635031;86;22724;-70
2021/09/13 10:16:23;;;;;;;3.47;2.35;;;;;;;30.63;24.25;100637.11;1630386;86;21271;-64
2021/09/13 10:18:57;;;;;;;7.12;2.47;;;;;;;30.58;24.71;100642.46;1627980;86;21203;-66
2021/09/13 10:21:30;;;;;;;9.00;3.10;;;;;;;30.56;24.82;100639.73;1609376;86;21361;-67
2021/09/13 10:24:06;;;;;;;7.05;2.58;;;;;;;30.48;25.05;100636.14;1652091;85;21239;-65
2021/09/13 10:26:42;;;;;;;7.65;2.60;;;;;;;30.34;25.08;100642.52;1652996;85;21746;-65
2021/09/13 10:29:18;;;;;;;5.83;2.50;;;;;;;30.20;25.64;100636.41;1651843;85;21177;-67
2021/09/13 10:31:56;;;;;;;8.73;2.80;;;;;;;30.08;25.55;100639.79;1636298;86;21716;-67
2021/09/13 10:34:34;;;;;;;8.13;2.15;;;;;;;29.97;25.71;100634.28;1653975;85;21872;-64
2021/09/13 10:37:21;;;;;;;5.00;2.67;;;;;;;29.89;25.70;100633.92;1656397;85;22093;-64
2021/09/13 10:40:04;;;;;;;7.47;2.77;;;;;;;29.80;26.05;100634.92;1653491;85;21333;-64
2021/09/13 10:42:48;;;;;;;7.05;2.65;;;;;;;29.68;26.39;100643.66;1655044;85;21924;-61
2021/09/13 10:45:42;;;;;;;11.83;2.72;;;;;;;29.50;26.17;100640.43;1656826;85;21458;-65
2021/09/13 10:48:24;;;;;;;7.35;2.52;;;;;;;29.34;26.16;100634.86;1658041;85;21328;-66
2021/09/13 10:51:00;;;;;;;6.12;3.10;;;;;;;29.28;26.38;100635.05;1653190;85;21318;-64
2021/09/13 10:53:35;;;;;;;12.95;3.35;;;;;;;29.19;26.24;100629.77;1633780;86;21915;-64
2021/09/13 10:56:25;;;;;;;9.63;2.80;;;;;;;29.12;26.71;100635.84;1655019;85;21271;-66
2021/09/13 10:58:58;;;;;;;3.15;2.10;;;;;;;28.98;26.78;100627.83;1622813;87;21292;-69
2021/09/13 11:01:31;;;;;;;;;;;;;;;28.73;26.99;100619.38;1633366;86;21309;-66
2021/09/13 11:04:06;;;;;;;6.22;2.22;;;;;;;28.60;27.11;100619.98;1639642;86;20368;-65
2021/09/13 11:06:44;;;;;;;5.83;2.47;;;;;;;28.50;26.87;100620.31;1625126;86;21197;-65
2021/09/13 11:09:21;;;;;;;3.98;2.17;;;;;;;28.42;27.08;100618.04;1626355;86;21231;-64
2021/09/13 11:11:56;;;;;;;7.55;2.50;;;;;;;28.33;27.04;100613.56;1619037;86;21890;-65
2021/09/13 11:14:32;;;;;;;8.63;3.15;;;;;;;28.25;27.25;100613.98;1627363;86;21286;-62
2021/09/13 11:17:06;;;;;;;4.75;2.17;;;;;;;28.21;28.01;100614.16;1629855;86;21267;-64
2021/09/13 11:19:42;;;;;;;4.67;2.60;;;;;;;28.16;28.05;100610.59;1619701;87;21226;-64
2021/09/13 11:22:16;;;;;;;10.25;2.92;;;;;;;28.04;28.42;100607.41;1620079;87;21395;-63
2021/09/13 11:24:49;;;;;;;4.60;2.27;;;;;;;27.85;29.23;100609.97;1620263;87;21357;-68
2021/09/13 11:27:25;;;;;;;10.05;5.47;;;;;;;27.68;29.37;100610.99;1617756;87;22141;-75
2021/09/13 11:29:58;;;;;;;16.30;8.53;;;;;;;27.54;29.89;100615.02;1621298;87;21854;-61
2021/09/13 11:32:32;;;;;;;8.73;5.58;;;;;;;27.39;30.64;100606.10;1629608;86;21820;-62
2021/09/13 11:35:07;;;;;;;7.15;3.83;;;;;;;27.24;30.85;100606.56;1628755;86;21192;-66
2021/09/13 11:37:40;;;;;;;5.35;2.40;;;;;;;27.17;30.80;100606.39;1601192;86;21351;-65
2021/09/13 11:40:16;;;;;;;7.30;2.77;;;;;;;27.05;30.15;100599.69;1618469;87;21209;-65
2021/09/13 11:42:49;;;;;;;8.68;2.72;;;;;;;26.96;30.30;100606.48;1620577;87;21359;-61
2021/09/13 11:45:24;;;;;;;6.47;2.70;;;;;;;26.90;30.44;100605.23;1624615;87;21394;-63
2021/09/13 11:48:08;;;;;;;10.30;3.67;;;;;;;26.84;30.47;100598.12;1621272;87;21328;-63
2021/09/13 11:50:43;;;;;;;27.30;5.05;;;;;;;26.78;31.01;100601.72;1624526;87;21300;-68
2021/09/13 11:53:17;;;;;;;11.68;3.30;;;;;;;26.71;31.33;100595.09;1623167;87;21306;-62
2021/09/13 11:55:56;;;;;;;13.48;3.80;;;;;;;26.68;30.92;100588.84;1625693;87;21530;-63
2021/09/13 11:58:29;;;;;;;8.50;3.62;;;;;;;26.63;31.07;100591.41;1625567;88;21770;-64
2021/09/13 12:01:02;;;;;;;12.98;3.45;;;;;;;26.58;31.11;100592.11;1622865;87;21323;-64